Current Weather Around the State

 

KBDE - Baudette, Minnesota, USA
Distance from station: N 88mi, 142km
Updated: Sun, 21-Apr-2024 9:53am CDT
Clear
Clear
 Wind from WNW
Wind: WNW 6 mph, 9 km/h
Temperature: 45°F, 7°C
Wind Chill: 42°F, 6°C
Dew Point: 27°F, -3°C
Humidity: 49%
Barometer: 30.10 inHg, 1019.3 hPa
Clouds: Clear
Visibility: 10 miles, 16 km
2024/04/21 14:53 KBDE 211453Z AUTO 30005KT 10SM CLR 07/M03 A3010 RMK AO2 SLP202 T00671033 51008
KBJI - Bemidji, Minnesota, USA
Distance from station: NW 3mi, 4km
Updated: Sun, 21-Apr-2024 9:55am CDT
Clear
Clear
 Wind from WSW
Wind: WSW 9 mph, 15 km/h
Temperature: 46°F, 8°C
Wind Chill: 41°F, 5°C
Dew Point: 23°F, -5°C
Humidity: 40%
Barometer: 30.12 inHg, 1020 hPa
Clouds: Clear
Visibility: 10 miles, 16 km
2024/04/21 14:55 KBJI 211455Z AUTO 25008KT 10SM CLR 08/M05 A3012 RMK AO2 T00761048
 
KDLH - Duluth, Minnesota, USA
Distance from station: NW 6mi, 10km
Updated: Sun, 21-Apr-2024 8:55am CDT
Clear
Clear
 Wind from W
Wind: W 12 mph, 19 km/h
Temperature: 43°F, 6°C
Wind Chill: 37°F, 3°C
Dew Point: 23°F, -5°C
Humidity: 46%
Barometer: 30.07 inHg, 1018.3 hPa
Clouds: Clear
Visibility: 10 miles, 16 km
2024/04/21 13:55 KDLH 211355Z 28010KT 10SM CLR 06/M05 A3007 RMK AO2 SLP198 T00561050
KBRD - Brainerd, Minnesota, USA
Distance from station: SSE 82mi, 132km
Updated: Sun, 21-Apr-2024 9:53am CDT
Clear
Clear
 Wind from W
Wind: W 9 mph, 15 km/h
Temperature: 48°F, 9°C
Wind Chill: 44°F, 7°C
Dew Point: 23°F, -5°C
Humidity: 37%
Barometer: 30.15 inHg, 1021 hPa
Clouds: Clear
Visibility: 10 miles, 16 km
2024/04/21 14:53 KBRD 211453Z AUTO 27008KT 10SM CLR 09/M05 A3015 RMK AO2 SLP218 T00891050 50003
 
KSTC - St. Cloud, Minnesota, USA
Distance from station: NNE 20mi, 32km
Updated: Sun, 21-Apr-2024 9:53am CDT
Clear
Clear
 Wind from W
Wind: W 9 mph, 15 km/h
Temperature: 50°F, 10°C
Wind Chill: 46°F, 8°C
Dew Point: 25°F, -4°C
Humidity: 37%
Barometer: 30.18 inHg, 1022 hPa
Clouds: Clear
Visibility: 10 miles, 16 km
2024/04/21 14:53 KSTC 211453Z 28008KT 10SM CLR 10/M04 A3018 RMK AO2 SLP235 T01001044 50005
KBDH - Willmar Muni, Minnesota, USA
Distance from station: WSW 47mi, 76km
Updated: Sun, 21-Apr-2024 9:55am CDT
Clear
Clear
 Wind from WNW
Wind: WNW 12 mph, 19 km/h
Temperature: 45°F, 7°C
Wind Chill: 39°F, 4°C
Dew Point: 27°F, -3°C
Humidity: 49%
Barometer: 30.22 inHg, 1023.4 hPa
Clouds: Clear
Visibility: 10 miles, 16 km
2024/04/21 14:55 KBDH 211455Z AUTO 29010KT 10SM CLR 07/M03 A3022 RMK AO2
 
KLXL - Little Falls, Minnesota, USA
Distance from station: N 47mi, 76km
Updated: Sun, 21-Apr-2024 9:55am CDT
Clear
Clear
 Wind from WNW
Wind: WNW 6 mph, 9 km/h
Temperature: 46°F, 8°C
Wind Chill: 43°F, 6°C
Dew Point: 23°F, -5°C
Humidity: 40%
Barometer: 30.16 inHg, 1021.3 hPa
Clouds: Clear
Visibility: 10 miles, 16 km
2024/04/21 14:55 KLXL 211455Z AUTO 30005KT 10SM CLR 08/M05 A3016 RMK AO2
KMSP - Minneapolis, Minnesota, USA
Distance from station: ESE 54mi, 87km
Updated: Sun, 21-Apr-2024 9:53am CDT
Clear
Clear
 Wind from varies
Wind: varies 7 mph, 11 km/h
Temperature: 50°F, 10°C
Wind Chill: 47°F, 8°C
Dew Point: 25°F, -4°C
Humidity: 37%
Barometer: 30.19 inHg, 1022.4 hPa
Clouds: Clear
Visibility: 10 miles, 16 km
2024/04/21 14:53 KMSP 211453Z VRB06KT 10SM CLR 10/M04 A3019 RMK AO2 SLP230 T01001039 50004
 
KMML - Marshall/Ryan, Minnesota, USA
Distance from station: W 1mi, 2km
Updated: Sun, 21-Apr-2024 8:56am CDT
Clear
Clear
 Wind from W
Wind: W 12 mph, 19 km/h
Temperature: 46°F, 8°C
Wind Chill: 40°F, 4°C
Dew Point: 21°F, -6°C
Humidity: 37%
Barometer: 30.25 inHg, 1024.4 hPa
Clouds: Clear
Visibility: 10 miles, 16 km
2024/04/21 13:56 KMML 211356Z AUTO 28010KT 10SM CLR 08/M06 A3025 RMK AO2 SLP254 T00781056
KRST - Rochester, Minnesota, USA
Distance from station: S 8mi, 13km
Updated: Sun, 21-Apr-2024 9:54am CDT
Clear
Clear
 Wind from WNW
Wind: WNW 13 mph, 20 km/h
Temperature: 48°F, 9°C
Wind Chill: 43°F, 6°C
Dew Point: 25°F, -4°C
Humidity: 40%
Barometer: 30.20 inHg, 1022.7 hPa
Clouds: Clear
Visibility: 10 miles, 16 km
2024/04/21 14:54 KRST 211454Z 30011KT 10SM CLR 09/M04 A3020 RMK AO2 SLP238 T00891039 51006